Terminal Aerodrome Forecast
Issued by NWS

Home | Current Version | Previous Version | Graphics & Text | Print | Product List | Glossary On
Versions: 1 2 3 4 5 6 7 8 9 10 11 12
000
FTUS43 KLSX 271500 AAA
TAFSUS
TAF AMD
KSUS 271506Z 2715/2812 28014G20KT P6SM -RA OVC008
     FM271800 30012KT P6SM OVC020
     FM272000 30010KT P6SM OVC040
     FM280600 33005KT P6SM BKN150=

USA.gov is the U.S. government's official web portal to all federal, state and local government web resources and services.